Time,TemperatureF,DewpointF,PressureIn,WindDirection,WindDirectionDegrees,WindSpeedMPH,WindSpeedGustMPH,Humidity,HourlyPrecipIn,Conditions,Clouds,dailyrainin,SoftwareType,DateUTC
2013-07-01 00:05:00,70.6,68.0,29.80,NNW,347,0.0,0.0,91,0.00,,,0.00,weatherlink.com 1.10,2013-07-01 04:05:00,
2013-07-01 00:20:00,70.4,68.0,29.80,NNW,347,0.0,0.0,92,0.00,,,0.00,weatherlink.com 1.10,2013-07-01 04:20:00,
2013-07-01 00:35:00,70.3,68.0,29.80,NNW,347,0.0,0.0,92,0.00,,,0.00,weatherlink.com 1.10,2013-07-01 04:35:00,
2013-07-01 00:50:00,70.0,68.0,29.80,NNW,347,0.0,0.0,92,0.00,,,0.00,weatherlink.com 1.10,2013-07-01 04:50:00,
2013-07-01 01:05:00,69.7,68.0,29.80,NNW,347,0.0,0.0,93,0.00,,,0.00,weatherlink.com 1.10,2013-07-01 05:05:00,
2013-07-01 01:20:00,69.3,68.0,29.80,NNW,347,0.0,0.0,94,0.00,,,0.00,weatherlink.com 1.10,2013-07-01 05:20:00,
2013-07-01 01:35:00,69.0,67.0,29.79,NNW,347,0.0,0.0,94,0.00,,,0.00,weatherlink.com 1.10,2013-07-01 05:35:00,
2013-07-01 01:50:00,68.9,68.0,29.79,North,349,0.0,0.0,95,0.00,,,0.00,weatherlink.com 1.10,2013-07-01 05:50:00,
2013-07-01 02:05:00,68.8,67.0,29.79,North,349,0.0,0.0,95,0.00,,,0.00,weatherlink.com 1.10,2013-07-01 06:05:00,
2013-07-01 02:21:00,68.7,67.0,29.79,NNW,347,0.0,0.0,95,0.00,,,0.00,weatherlink.com 1.10,2013-07-01 06:21:00,
2013-07-01 02:36:00,68.9,68.0,29.78,North,349,0.0,0.0,95,0.00,,,0.00,weatherlink.com 1.10,2013-07-01 06:36:00,
2013-07-01 02:51:00,68.9,68.0,29.79,North,349,0.0,0.0,95,0.00,,,0.00,weatherlink.com 1.10,2013-07-01 06:51:00,
2013-07-01 03:06:00,69.0,68.0,29.78,North,349,0.0,0.0,95,0.00,,,0.00,weatherlink.com 1.10,2013-07-01 07:06:00,
2013-07-01 03:21:00,69.0,68.0,29.79,NNW,347,0.0,0.0,95,0.01,,,0.01,weatherlink.com 1.10,2013-07-01 07:21:00,
2013-07-01 03:36:00,68.9,68.0,29.78,NNW,347,0.0,0.0,96,0.22,,,0.22,weatherlink.com 1.10,2013-07-01 07:36:00,
2013-07-01 03:51:00,68.7,68.0,29.78,NNW,347,0.0,0.0,96,0.26,,,0.26,weatherlink.com 1.10,2013-07-01 07:51:00,
2013-07-01 04:06:00,68.6,68.0,29.78,NNW,347,0.0,0.0,96,0.26,,,0.26,weatherlink.com 1.10,2013-07-01 08:06:00,
2013-07-01 04:21:00,68.6,68.0,29.78,NNW,347,0.0,0.0,96,0.24,,,0.26,weatherlink.com 1.10,2013-07-01 08:21:00,
2013-07-01 04:36:00,68.4,67.0,29.79,NNW,347,0.0,0.0,96,0.04,,,0.26,weatherlink.com 1.10,2013-07-01 08:36:00,
2013-07-01 04:51:00,68.4,68.0,29.79,NNW,347,0.0,0.0,97,0.00,,,0.26,weatherlink.com 1.10,2013-07-01 08:51:00,
2013-07-01 05:06:00,68.4,68.0,29.80,NNW,347,0.0,0.0,97,0.00,,,0.26,weatherlink.com 1.10,2013-07-01 09:06:00,
2013-07-01 05:21:00,68.5,68.0,29.81,NNW,347,0.0,0.0,97,0.00,,,0.26,weatherlink.com 1.10,2013-07-01 09:21:00,
2013-07-01 05:36:00,68.3,68.0,29.81,NNW,347,0.0,0.0,97,0.00,,,0.26,weatherlink.com 1.10,2013-07-01 09:36:00,
2013-07-01 05:51:00,68.1,67.0,29.82,NNW,347,0.0,0.0,97,0.00,,,0.26,weatherlink.com 1.10,2013-07-01 09:51:00,
2013-07-01 06:06:00,68.0,67.0,29.82,NNW,347,0.0,0.0,97,0.00,,,0.26,weatherlink.com 1.10,2013-07-01 10:06:00,
2013-07-01 06:21:00,68.0,67.0,29.82,NNW,347,0.0,0.0,97,0.00,,,0.26,weatherlink.com 1.10,2013-07-01 10:21:00,
2013-07-01 06:36:00,67.9,67.0,29.82,NNW,347,0.0,0.0,97,0.00,,,0.26,weatherlink.com 1.10,2013-07-01 10:36:00,
2013-07-01 06:51:00,67.9,67.0,29.83,NNW,347,0.0,0.0,97,0.00,,,0.26,weatherlink.com 1.10,2013-07-01 10:51:00,
2013-07-01 07:06:00,68.0,67.0,29.83,NNW,347,0.0,0.0,97,0.00,,,0.26,weatherlink.com 1.10,2013-07-01 11:06:00,
2013-07-01 07:21:00,68.1,67.0,29.83,NNW,347,0.0,0.0,97,0.00,,,0.26,weatherlink.com 1.10,2013-07-01 11:21:00,
2013-07-01 07:36:00,68.3,68.0,29.83,NNW,347,0.0,0.0,97,0.00,,,0.26,weatherlink.com 1.10,2013-07-01 11:36:00,
2013-07-01 07:51:00,68.5,68.0,29.83,NNW,347,0.0,0.0,97,0.00,,,0.26,weatherlink.com 1.10,2013-07-01 11:51:00,
2013-07-01 08:06:00,68.8,68.0,29.83,NNW,347,0.0,0.0,97,0.00,,,0.26,weatherlink.com 1.10,2013-07-01 12:06:00,
2013-07-01 08:21:00,69.2,68.0,29.84,NNW,347,0.0,0.0,97,0.00,,,0.26,weatherlink.com 1.10,2013-07-01 12:21:00,
2013-07-01 08:36:00,69.5,69.0,29.84,NNW,347,0.0,0.0,97,0.00,,,0.26,weatherlink.com 1.10,2013-07-01 12:36:00,
2013-07-01 08:51:00,69.5,68.0,29.84,NNW,347,0.0,0.0,95,0.00,,,0.26,weatherlink.com 1.10,2013-07-01 12:51:00,
2013-07-01 09:06:00,70.0,68.0,29.85,NNE,24,0.0,0.0,94,0.00,,,0.26,weatherlink.com 1.10,2013-07-01 13:06:00,
2013-07-01 09:21:00,70.9,69.0,29.85,NNE,25,0.0,0.0,94,0.00,,,0.26,weatherlink.com 1.10,2013-07-01 13:21:00,
2013-07-01 09:36:00,70.9,69.0,29.85,NNE,25,0.0,0.0,93,0.00,,,0.26,weatherlink.com 1.10,2013-07-01 13:36:00,
2013-07-01 09:51:00,71.1,69.0,29.86,NNE,24,0.0,0.0,92,0.00,,,0.26,weatherlink.com 1.10,2013-07-01 13:51:00,
2013-07-01 10:06:00,71.5,69.0,29.86,NNE,25,0.0,0.0,93,0.00,,,0.26,weatherlink.com 1.10,2013-07-01 14:06:00,
2013-07-01 10:21:00,71.9,69.0,29.86,East,80,0.0,1.0,91,0.00,,,0.26,weatherlink.com 1.10,2013-07-01 14:21:00,
2013-07-01 10:36:00,72.3,69.0,29.86,East,80,0.0,1.0,90,0.00,,,0.26,weatherlink.com 1.10,2013-07-01 14:36:00,
2013-07-01 10:51:00,73.1,69.0,29.86,East,80,0.0,1.0,88,0.00,,,0.26,weatherlink.com 1.10,2013-07-01 14:51:00,
2013-07-01 11:06:00,73.4,70.0,29.86,NNE,28,0.0,1.0,88,0.00,,,0.26,weatherlink.com 1.10,2013-07-01 15:06:00,
2013-07-01 11:21:00,75.5,71.0,29.86,NNW,340,0.0,3.0,87,0.00,,,0.26,weatherlink.com 1.10,2013-07-01 15:21:00,
2013-07-01 11:36:00,77.9,71.0,29.86,NNW,340,0.0,1.0,80,0.00,,,0.26,weatherlink.com 1.10,2013-07-01 15:36:00,
2013-07-01 11:51:00,79.0,72.0,29.86,ENE,68,1.0,2.0,80,0.00,,,0.26,weatherlink.com 1.10,2013-07-01 15:51:00,
2013-07-01 12:06:00,79.7,73.0,29.85,SSW,201,0.0,1.0,79,0.00,,,0.26,weatherlink.com 1.10,2013-07-01 16:06:00,
2013-07-01 12:21:00,80.1,73.0,29.85,SSW,200,0.0,1.0,78,0.00,,,0.26,weatherlink.com 1.10,2013-07-01 16:21:00,
2013-07-01 12:36:00,80.3,72.0,29.85,NW,321,0.0,2.0,76,0.00,,,0.26,weatherlink.com 1.10,2013-07-01 16:36:00,
2013-07-01 12:52:00,81.6,73.0,29.85,SE,134,0.0,1.0,75,0.00,,,0.26,weatherlink.com 1.10,2013-07-01 16:52:00,
2013-07-01 13:08:00,81.6,73.0,29.85,NNW,341,0.0,1.0,74,0.00,,,0.26,weatherlink.com 1.10,2013-07-01 17:08:00,
2013-07-01 13:22:00,81.8,74.0,29.84,WNW,293,0.0,4.0,76,0.00,,,0.26,weatherlink.com 1.10,2013-07-01 17:22:00,
2013-07-01 13:37:00,82.8,73.0,29.83,South,169,1.0,1.0,73,0.00,,,0.26,weatherlink.com 1.10,2013-07-01 17:37:00,
2013-07-01 13:52:00,84.1,73.0,29.83,West,280,0.0,4.0,69,0.00,,,0.26,weatherlink.com 1.10,2013-07-01 17:52:00,
2013-07-01 14:07:00,84.4,73.0,29.82,SE,141,0.0,2.0,69,0.00,,,0.26,weatherlink.com 1.10,2013-07-01 18:07:00,
2013-07-01 14:22:00,83.3,71.0,29.82,WNW,300,1.0,2.0,67,0.00,,,0.26,weatherlink.com 1.10,2013-07-01 18:22:00,
2013-07-01 14:37:00,83.0,73.0,29.83,WSW,257,1.0,3.0,72,0.00,,,0.26,weatherlink.com 1.10,2013-07-01 18:37:00,
2013-07-01 14:52:00,82.2,73.0,29.83,SW,222,0.0,2.0,74,0.00,,,0.26,weatherlink.com 1.10,2013-07-01 18:52:00,
2013-07-01 15:07:00,83.3,72.0,29.82,SSW,207,2.0,3.0,68,0.00,,,0.26,weatherlink.com 1.10,2013-07-01 19:07:00,
2013-07-01 15:22:00,82.4,73.0,29.82,ENE,77,0.0,5.0,74,0.00,,,0.26,weatherlink.com 1.10,2013-07-01 19:22:00,
2013-07-01 15:37:00,82.8,75.0,29.82,ESE,113,0.0,1.0,76,0.00,,,0.26,weatherlink.com 1.10,2013-07-01 19:37:00,
2013-07-01 15:52:00,82.4,72.0,29.83,WNW,298,0.0,1.0,71,0.00,,,0.26,weatherlink.com 1.10,2013-07-01 19:52:00,
2013-07-01 16:07:00,82.2,73.0,29.83,WSW,238,0.0,2.0,74,0.00,,,0.26,weatherlink.com 1.10,2013-07-01 20:07:00,
2013-07-01 16:22:00,82.4,71.0,29.82,NNW,331,1.0,3.0,69,0.00,,,0.26,weatherlink.com 1.10,2013-07-01 20:22:00,
2013-07-01 16:37:00,83.9,73.0,29.82,SSW,195,0.0,1.0,69,0.00,,,0.26,weatherlink.com 1.10,2013-07-01 20:37:00,
2013-07-01 16:52:00,82.1,73.0,29.82,SE,143,0.0,5.0,74,0.00,,,0.26,weatherlink.com 1.10,2013-07-01 20:52:00,
2013-07-01 17:07:00,81.7,73.0,29.82,West,278,1.0,2.0,76,0.00,,,0.26,weatherlink.com 1.10,2013-07-01 21:07:00,
2013-07-01 17:22:00,80.8,73.0,29.82,WNW,287,0.0,5.0,78,0.00,,,0.26,weatherlink.com 1.10,2013-07-01 21:22:00,
2013-07-01 17:37:00,80.7,73.0,29.82,NNW,335,0.0,2.0,77,0.00,,,0.26,weatherlink.com 1.10,2013-07-01 21:37:00,
2013-07-01 17:52:00,80.9,72.0,29.81,NW,307,0.0,4.0,75,0.00,,,0.26,weatherlink.com 1.10,2013-07-01 21:52:00,
2013-07-01 18:07:00,79.4,72.0,29.82,NW,320,1.0,2.0,78,0.00,,,0.26,weatherlink.com 1.10,2013-07-01 22:07:00,
2013-07-01 18:22:00,78.5,72.0,29.82,NW,318,1.0,4.0,79,0.00,,,0.26,weatherlink.com 1.10,2013-07-01 22:22:00,
2013-07-01 18:37:00,77.6,71.0,29.82,NW,311,0.0,1.0,81,0.00,,,0.26,weatherlink.com 1.10,2013-07-01 22:37:00,
2013-07-01 18:52:00,77.0,72.0,29.83,NW,312,0.0,1.0,83,0.00,,,0.26,weatherlink.com 1.10,2013-07-01 22:52:00,
2013-07-01 19:07:00,76.6,72.0,29.84,NW,312,0.0,1.0,85,0.00,,,0.26,weatherlink.com 1.10,2013-07-01 23:07:00,
2013-07-01 19:22:00,75.8,71.0,29.85,NW,312,0.0,1.0,86,0.00,,,0.26,weatherlink.com 1.10,2013-07-01 23:22:00,
2013-07-01 19:37:00,74.7,71.0,29.85,NW,312,0.0,1.0,89,0.00,,,0.26,weatherlink.com 1.10,2013-07-01 23:37:00,
2013-07-01 19:52:00,74.2,72.0,29.86,NW,312,0.0,0.0,91,0.04,,,0.30,weatherlink.com 1.10,2013-07-01 23:52:00,
2013-07-01 20:07:00,73.6,72.0,29.87,NW,312,0.0,1.0,93,0.08,,,0.34,weatherlink.com 1.10,2013-07-02 00:07:00,
2013-07-01 20:22:00,73.0,71.0,29.87,NW,310,0.0,1.0,94,0.08,,,0.34,weatherlink.com 1.10,2013-07-02 00:22:00,
2013-07-01 20:37:00,72.7,71.0,29.89,NW,311,0.0,0.0,94,0.10,,,0.36,weatherlink.com 1.10,2013-07-02 00:37:00,
2013-07-01 20:52:00,71.1,69.0,29.90,ENE,70,1.0,6.0,92,0.09,,,0.39,weatherlink.com 1.10,2013-07-02 00:52:00,
2013-07-01 21:07:00,69.3,67.0,29.90,East,79,2.0,5.0,93,0.13,,,0.47,weatherlink.com 1.10,2013-07-02 01:07:00,
2013-07-01 21:22:00,68.9,67.0,29.90,East,94,0.0,2.0,94,0.15,,,0.49,weatherlink.com 1.10,2013-07-02 01:22:00,
2013-07-01 21:37:00,68.5,67.0,29.89,SSE,153,0.0,2.0,94,0.12,,,0.49,weatherlink.com 1.10,2013-07-02 01:37:00,
2013-07-01 21:52:00,68.4,67.0,29.89,SSE,153,0.0,1.0,95,0.10,,,0.49,weatherlink.com 1.10,2013-07-02 01:52:00,
2013-07-01 22:07:00,68.3,67.0,29.91,SSE,153,0.0,1.0,95,0.01,,,0.49,weatherlink.com 1.10,2013-07-02 02:07:00,
2013-07-01 22:22:00,68.2,67.0,29.93,SSE,153,0.0,1.0,95,0.00,,,0.49,weatherlink.com 1.10,2013-07-02 02:22:00,
2013-07-01 22:37:00,68.3,67.0,29.93,SW,228,0.0,1.0,96,0.00,,,0.49,weatherlink.com 1.10,2013-07-02 02:37:00,
2013-07-01 22:52:00,68.3,67.0,29.93,SW,228,0.0,1.0,96,0.00,,,0.49,weatherlink.com 1.10,2013-07-02 02:52:00,
2013-07-01 23:07:00,68.4,67.0,29.93,SW,226,1.0,1.0,96,0.00,,,0.49,weatherlink.com 1.10,2013-07-02 03:07:00,
2013-07-01 23:22:00,68.5,67.0,29.93,SW,226,0.0,0.0,96,0.00,,,0.49,weatherlink.com 1.10,2013-07-02 03:22:00,
2013-07-01 23:37:00,68.3,67.0,29.93,SW,226,0.0,0.0,96,0.00,,,0.49,weatherlink.com 1.10,2013-07-02 03:37:00,
2013-07-01 23:52:00,68.3,67.0,29.93,SW,226,0.0,0.0,96,0.00,,,0.49,weatherlink.com 1.10,2013-07-02 03:52:00,